Time;durP1;ratioP1;P1;durP2;ratioP2;P2;SDS_P1;SDS_P2;PMS_P1;PMS_P2;Temp;Humidity;BMP_temperature;BMP_pressure;BME280_temperature;BME280_humidity;BME280_pressure;Samples;Min_cycle;Max_cycle;Signal;HPM_P1;HPM_P2
2022/03/11 00:01:45;;;;;;;;;39.50;35.00;;;;;;;;5013290;28;45435;-67
2022/03/11 00:04:10;;;;;;;;;32.50;31.00;;;;;;;;5011718;28;45628;-68
2022/03/11 00:06:35;;;;;;;;;28.00;27.75;;;;;;;;5009039;28;46479;-68
2022/03/11 00:09:01;;;;;;;;;34.00;30.25;;;;;;;;5009128;28;45527;-68
2022/03/11 00:11:27;;;;;;;;;23.25;23.25;;;;;;;;5015302;28;45492;-68
2022/03/11 00:13:52;;;;;;;;;24.25;21.75;;;;;;;;5012593;28;45539;-68
2022/03/11 00:16:17;;;;;;;;;26.50;21.75;;;;;;;;5007948;28;47652;-68
2022/03/11 00:18:42;;;;;;;;;20.25;20.25;;;;;;;;5011928;28;45922;-68
2022/03/11 00:21:12;;;;;;;;;22.25;21.00;;;;;;;;5008206;28;45455;-68
2022/03/11 00:23:37;;;;;;;;;29.50;28.25;;;;;;;;5004680;28;45792;-68
2022/03/11 00:26:02;;;;;;;;;22.25;21.75;;;;;;;;5011389;28;47522;-67
2022/03/11 00:28:27;;;;;;;;;25.25;23.50;;;;;;;;5005163;28;45370;-67
2022/03/11 00:30:55;;;;;;;;;25.25;24.75;;;;;;;;5012778;28;45537;-68
2022/03/11 00:33:21;;;;;;;;;24.25;22.00;;;;;;;;5012712;28;45501;-67
2022/03/11 00:35:46;;;;;;;;;29.75;26.00;;;;;;;;5014745;28;47552;-68
2022/03/11 00:38:11;;;;;;;;;27.00;21.50;;;;;;;;5014068;28;45529;-67
2022/03/11 00:40:36;;;;;;;;;25.25;24.00;;;;;;;;5014294;28;45432;-68
2022/03/11 00:43:02;;;;;;;;;26.50;26.25;;;;;;;;5013067;28;45803;-68
2022/03/11 00:45:28;;;;;;;;;25.50;24.75;;;;;;;;5014068;28;46305;-67
2022/03/11 00:47:53;;;;;;;;;21.50;21.50;;;;;;;;5015246;28;45410;-69
2022/03/11 00:50:19;;;;;;;;;17.75;15.75;;;;;;;;5013367;28;45632;-67
2022/03/11 00:52:44;;;;;;;;;34.75;30.75;;;;;;;;5012628;28;45586;-68
2022/03/11 00:55:10;;;;;;;;;29.50;28.25;;;;;;;;5011404;28;48404;-66
2022/03/11 00:57:35;;;;;;;;;27.25;26.75;;;;;;;;5011124;28;46465;-68
2022/03/11 01:00:00;;;;;;;;;25.50;24.50;;;;;;;;5015460;28;45381;-67
2022/03/11 01:02:26;;;;;;;;;26.25;24.00;;;;;;;;5015747;28;45652;-67
2022/03/11 01:04:51;;;;;;;;;24.25;24.25;;;;;;;;5012222;28;47665;-68
2022/03/11 01:07:16;;;;;;;;;24.50;24.50;;;;;;;;5013748;28;45519;-68
2022/03/11 01:09:42;;;;;;;;;23.25;20.75;;;;;;;;5014030;28;45463;-68
2022/03/11 01:12:07;;;;;;;;;25.50;24.25;;;;;;;;5013946;28;45768;-66
2022/03/11 01:14:32;;;;;;;;;24.50;24.25;;;;;;;;5015562;28;45700;-69
2022/03/11 01:16:57;;;;;;;;;25.75;22.00;;;;;;;;5012239;28;45771;-68
2022/03/11 01:19:23;;;;;;;;;21.75;21.25;;;;;;;;5013512;28;49718;-68
2022/03/11 01:21:48;;;;;;;;;27.00;23.25;;;;;;;;5012086;28;45549;-68
2022/03/11 01:24:14;;;;;;;;;21.50;19.75;;;;;;;;5011939;28;47045;-68
2022/03/11 01:26:39;;;;;;;;;23.25;23.25;;;;;;;;5014756;28;45466;-68
2022/03/11 01:29:04;;;;;;;;;27.25;22.00;;;;;;;;5013371;28;45518;-69
2022/03/11 01:31:29;;;;;;;;;22.75;17.25;;;;;;;;5013479;28;45521;-68
2022/03/11 01:33:55;;;;;;;;;23.50;21.75;;;;;;;;5013262;28;46406;-68
2022/03/11 01:36:21;;;;;;;;;21.75;20.50;;;;;;;;5010717;28;46353;-68
2022/03/11 01:38:46;;;;;;;;;22.25;20.00;;;;;;;;5014107;28;45477;-68
2022/03/11 01:41:11;;;;;;;;;20.25;18.25;;;;;;;;5013208;28;45383;-68
2022/03/11 01:43:53;;;;;;;;;22.75;21.75;;;;;;;;5013053;28;46509;-68
2022/03/11 01:46:19;;;;;;;;;24.25;22.25;;;;;;;;5013276;28;45592;-68
2022/03/11 01:48:44;;;;;;;;;24.25;22.25;;;;;;;;5011667;28;45874;-68
2022/03/11 01:51:10;;;;;;;;;24.50;21.50;;;;;;;;5005874;28;45641;-69
2022/03/11 01:53:35;;;;;;;;;22.50;18.50;;;;;;;;5013702;28;45326;-68
2022/03/11 01:56:01;;;;;;;;;17.50;17.25;;;;;;;;4995329;28;45514;-68
2022/03/11 01:58:26;;;;;;;;;17.75;17.75;;;;;;;;5013048;28;45504;-66
2022/03/11 02:00:51;;;;;;;;;20.25;18.50;;;;;;;;5012896;28;45430;-68
2022/03/11 02:03:17;;;;;;;;;21.75;21.25;;;;;;;;5013094;28;45828;-67
2022/03/11 02:05:43;;;;;;;;;19.75;19.50;;;;;;;;5013567;28;45601;-68
2022/03/11 02:08:09;;;;;;;;;24.25;21.75;;;;;;;;5011711;28;45555;-68
2022/03/11 02:10:34;;;;;;;;;21.50;18.75;;;;;;;;5010294;28;45586;-68
2022/03/11 02:13:03;;;;;;;;;23.50;21.50;;;;;;;;5010568;28;48126;-66
2022/03/11 02:15:28;;;;;;;;;19.75;19.50;;;;;;;;5010153;28;45966;-67
2022/03/11 02:17:54;;;;;;;;;22.25;20.75;;;;;;;;5012589;28;45337;-66
2022/03/11 02:20:19;;;;;;;;;25.00;21.75;;;;;;;;5011804;28;45360;-69
2022/03/11 02:22:46;;;;;;;;;24.25;22.50;;;;;;;;5013237;28;45570;-66
2022/03/11 02:25:12;;;;;;;;;25.50;23.00;;;;;;;;5012170;28;45411;-69
2022/03/11 02:27:38;;;;;;;;;19.50;17.75;;;;;;;;5008936;28;45395;-67
2022/03/11 02:30:14;;;;;;;;;21.25;21.25;;;;;;;;5013617;28;45674;-66
2022/03/11 02:32:39;;;;;;;;;21.00;18.25;;;;;;;;5012331;28;46730;-67
2022/03/11 02:35:05;;;;;;;;;21.00;21.00;;;;;;;;5011125;28;46003;-67
2022/03/11 02:37:31;;;;;;;;;23.50;21.00;;;;;;;;5010997;28;45592;-68
2022/03/11 02:39:56;;;;;;;;;20.50;18.00;;;;;;;;5008833;28;45462;-67
2022/03/11 02:42:21;;;;;;;;;22.25;18.00;;;;;;;;5012464;28;46636;-67
2022/03/11 02:44:47;;;;;;;;;26.25;21.50;;;;;;;;5014196;28;45445;-67
2022/03/11 02:47:12;;;;;;;;;22.00;22.00;;;;;;;;5009394;28;45756;-67
2022/03/11 02:49:37;;;;;;;;;19.00;17.50;;;;;;;;5010873;28;45556;-68
2022/03/11 02:52:03;;;;;;;;;26.25;23.50;;;;;;;;5012618;28;45544;-68
2022/03/11 02:54:28;;;;;;;;;25.50;21.75;;;;;;;;5010822;28;45508;-69
2022/03/11 02:56:53;;;;;;;;;19.75;18.75;;;;;;;;5012125;28;45460;-67
2022/03/11 02:59:19;;;;;;;;;25.25;20.50;;;;;;;;5011631;28;45397;-67
2022/03/11 03:01:44;;;;;;;;;17.25;15.25;;;;;;;;5010263;28;48380;-66
2022/03/11 03:04:11;;;;;;;;;19.75;18.00;;;;;;;;5009365;28;46967;-66
2022/03/11 03:06:36;;;;;;;;;20.75;20.25;;;;;;;;5010583;28;45412;-67
2022/03/11 03:09:01;;;;;;;;;20.50;17.25;;;;;;;;5013572;28;45461;-66
2022/03/11 03:11:27;;;;;;;;;16.00;15.75;;;;;;;;5014686;28;45422;-68
2022/03/11 03:13:52;;;;;;;;;20.50;18.25;;;;;;;;5010652;28;45556;-68
2022/03/11 03:16:17;;;;;;;;;18.75;18.25;;;;;;;;5011882;28;45480;-68
2022/03/11 03:18:42;;;;;;;;;21.50;18.25;;;;;;;;5010758;28;45432;-67
2022/03/11 03:21:08;;;;;;;;;22.00;22.00;;;;;;;;5011763;28;46621;-68
2022/03/11 03:23:33;;;;;;;;;24.25;19.00;;;;;;;;5012616;28;45753;-67
2022/03/11 03:25:58;;;;;;;;;21.50;19.75;;;;;;;;5013974;28;45483;-66
2022/03/11 03:28:23;;;;;;;;;25.50;21.00;;;;;;;;5013747;28;45510;-66
2022/03/11 03:30:49;;;;;;;;;18.25;16.50;;;;;;;;5013775;28;47333;-67
2022/03/11 03:33:14;;;;;;;;;20.75;19.50;;;;;;;;5014669;28;45474;-67
2022/03/11 03:35:39;;;;;;;;;21.50;19.75;;;;;;;;5015198;28;45457;-67
2022/03/11 03:38:05;;;;;;;;;18.75;18.75;;;;;;;;5013822;28;45476;-67
2022/03/11 03:40:30;;;;;;;;;18.50;17.50;;;;;;;;5013455;28;47537;-67
2022/03/11 03:42:55;;;;;;;;;16.75;16.75;;;;;;;;5014861;28;45398;-67
2022/03/11 03:45:20;;;;;;;;;21.25;19.25;;;;;;;;5013761;28;45331;-67
2022/03/11 03:47:46;;;;;;;;;18.00;16.25;;;;;;;;5017271;28;45357;-68
2022/03/11 03:50:11;;;;;;;;;18.75;18.75;;;;;;;;5013533;28;45842;-68
2022/03/11 03:52:37;;;;;;;;;20.50;16.75;;;;;;;;5014827;28;45453;-68
2022/03/11 03:55:02;;;;;;;;;20.75;18.25;;;;;;;;5013663;28;45464;-67
2022/03/11 03:57:27;;;;;;;;;21.25;19.25;;;;;;;;5014917;28;45434;-67
2022/03/11 03:59:52;;;;;;;;;18.50;17.25;;;;;;;;5016001;28;46331;-67
2022/03/11 04:02:18;;;;;;;;;25.00;21.75;;;;;;;;5013848;28;46128;-68
2022/03/11 04:04:43;;;;;;;;;14.50;14.25;;;;;;;;5011727;28;45427;-67
2022/03/11 04:07:08;;;;;;;;;17.25;17.25;;;;;;;;5013014;28;45848;-67
2022/03/11 04:09:34;;;;;;;;;14.00;14.00;;;;;;;;5013126;28;48312;-67
2022/03/11 04:11:59;;;;;;;;;21.25;20.50;;;;;;;;5015723;28;45396;-66
2022/03/11 04:14:25;;;;;;;;;22.25;17.75;;;;;;;;5014347;28;45514;-66
2022/03/11 04:16:50;;;;;;;;;18.00;16.50;;;;;;;;5014388;28;45395;-67
2022/03/11 04:19:15;;;;;;;;;20.50;20.25;;;;;;;;5012969;28;48762;-68
2022/03/11 04:21:40;;;;;;;;;17.50;17.50;;;;;;;;5012957;28;45426;-66
2022/03/11 04:24:12;;;;;;;;;17.25;15.75;;;;;;;;5014763;28;45549;-66
2022/03/11 04:26:38;;;;;;;;;17.75;16.00;;;;;;;;5016296;28;45425;-67
2022/03/11 04:29:04;;;;;;;;;17.50;16.50;;;;;;;;5013855;28;45321;-66
2022/03/11 04:31:29;;;;;;;;;13.50;13.00;;;;;;;;5010627;28;45694;-67
2022/03/11 04:33:55;;;;;;;;;19.00;16.75;;;;;;;;5012939;28;45396;-67
2022/03/11 04:36:21;;;;;;;;;14.00;13.50;;;;;;;;4996758;28;45628;-67
2022/03/11 04:38:46;;;;;;;;;20.00;19.00;;;;;;;;5016138;28;45804;-67
2022/03/11 04:41:11;;;;;;;;;17.00;16.50;;;;;;;;5012785;28;45421;-66
2022/03/11 04:43:36;;;;;;;;;19.00;15.25;;;;;;;;5014035;28;45312;-66
2022/03/11 04:46:02;;;;;;;;;15.25;14.75;;;;;;;;5014086;28;45474;-67
2022/03/11 04:48:28;;;;;;;;;16.25;15.50;;;;;;;;5012640;28;48376;-67
2022/03/11 04:50:53;;;;;;;;;16.00;15.75;;;;;;;;5014267;28;46226;-67
2022/03/11 04:53:18;;;;;;;;;16.00;13.25;;;;;;;;5013285;28;45351;-67
2022/03/11 04:55:43;;;;;;;;;15.00;13.75;;;;;;;;5012640;28;45492;-67
2022/03/11 04:58:09;;;;;;;;;15.25;13.00;;;;;;;;5012667;28;48490;-67
2022/03/11 05:00:34;;;;;;;;;14.50;14.50;;;;;;;;5013976;28;45548;-67
2022/03/11 05:03:01;;;;;;;;;15.00;11.50;;;;;;;;5014675;28;45386;-67
2022/03/11 05:05:26;;;;;;;;;16.00;14.25;;;;;;;;5015154;28;45525;-68
2022/03/11 05:07:51;;;;;;;;;13.00;13.00;;;;;;;;5012107;28;47520;-68
2022/03/11 05:10:16;;;;;;;;;16.50;15.00;;;;;;;;5013543;28;45541;-67
2022/03/11 05:12:42;;;;;;;;;16.75;14.25;;;;;;;;5012507;28;45514;-66
2022/03/11 05:15:08;;;;;;;;;16.25;12.75;;;;;;;;5014662;28;45502;-67
2022/03/11 05:17:34;;;;;;;;;9.50;9.25;;;;;;;;5014439;28;45599;-67
2022/03/11 05:19:59;;;;;;;;;14.75;14.00;;;;;;;;5013240;28;46121;-67
2022/03/11 05:22:24;;;;;;;;;12.50;12.50;;;;;;;;5012539;28;44922;-66
2022/03/11 05:24:50;;;;;;;;;16.75;14.25;;;;;;;;5012027;28;45899;-66
2022/03/11 05:27:15;;;;;;;;;8.25;8.25;;;;;;;;5013604;28;45314;-67
2022/03/11 05:29:41;;;;;;;;;14.50;10.75;;;;;;;;5015201;28;45631;-67
2022/03/11 05:32:07;;;;;;;;;12.50;10.75;;;;;;;;5010544;28;45686;-67
2022/03/11 05:34:34;;;;;;;;;15.75;10.00;;;;;;;;5013423;28;45691;-68
2022/03/11 05:36:59;;;;;;;;;12.75;12.75;;;;;;;;5012043;28;47624;-66
2022/03/11 05:39:24;;;;;;;;;11.25;11.00;;;;;;;;5013159;28;45347;-67
2022/03/11 05:41:50;;;;;;;;;12.25;11.75;;;;;;;;5013895;28;45435;-66
2022/03/11 05:44:19;;;;;;;;;13.25;11.00;;;;;;;;5013558;28;45504;-67
2022/03/11 05:46:45;;;;;;;;;13.25;13.00;;;;;;;;5011026;28;47502;-67
2022/03/11 05:49:10;;;;;;;;;10.50;10.50;;;;;;;;5006087;28;45586;-66
2022/03/11 05:51:37;;;;;;;;;12.50;12.00;;;;;;;;5010354;28;45582;-67
2022/03/11 05:54:02;;;;;;;;;9.50;9.50;;;;;;;;5012543;28;45389;-67
2022/03/11 05:56:27;;;;;;;;;7.25;7.25;;;;;;;;5014483;28;46056;-66
2022/03/11 05:58:53;;;;;;;;;10.75;9.75;;;;;;;;5011474;28;46388;-66
2022/03/11 06:01:18;;;;;;;;;9.75;9.00;;;;;;;;5011547;28;45488;-66
2022/03/11 06:03:45;;;;;;;;;12.00;11.25;;;;;;;;5011446;28;45588;-67
2022/03/11 06:06:11;;;;;;;;;13.25;13.25;;;;;;;;5011689;28;49026;-66
2022/03/11 06:08:36;;;;;;;;;11.00;6.50;;;;;;;;5014559;28;45652;-67
2022/03/11 06:11:01;;;;;;;;;12.00;11.25;;;;;;;;5010237;28;45580;-66
2022/03/11 06:13:27;;;;;;;;;7.75;7.75;;;;;;;;5012664;28;45526;-67
2022/03/11 06:15:52;;;;;;;;;10.50;10.00;;;;;;;;5012672;28;45939;-68
2022/03/11 06:18:18;;;;;;;;;12.00;12.00;;;;;;;;4997197;28;45625;-69
2022/03/11 06:20:43;;;;;;;;;14.25;12.25;;;;;;;;5014913;28;45320;-69
2022/03/11 06:23:09;;;;;;;;;11.25;11.25;;;;;;;;5012728;28;45377;-69
2022/03/11 06:25:34;;;;;;;;;11.25;11.25;;;;;;;;5010912;28;47676;-69
2022/03/11 06:27:59;;;;;;;;;12.50;11.25;;;;;;;;5012275;28;45564;-68
2022/03/11 06:30:24;;;;;;;;;10.00;10.00;;;;;;;;5011707;28;45451;-68
2022/03/11 06:32:51;;;;;;;;;8.75;8.75;;;;;;;;5009827;28;45375;-68
2022/03/11 06:35:17;;;;;;;;;12.75;10.75;;;;;;;;5011336;28;45637;-69
2022/03/11 06:37:43;;;;;;;;;12.00;10.00;;;;;;;;5010486;28;45758;-69
2022/03/11 06:40:09;;;;;;;;;11.75;11.25;;;;;;;;5010238;28;45358;-70
2022/03/11 06:42:39;;;;;;;;;10.50;9.25;;;;;;;;5009448;28;45398;-70
2022/03/11 06:45:06;;;;;;;;;10.25;10.00;;;;;;;;5011339;28;48633;-69
2022/03/11 06:47:31;;;;;;;;;12.75;12.50;;;;;;;;5009210;28;45538;-67
2022/03/11 06:49:56;;;;;;;;;10.00;10.00;;;;;;;;5009366;28;45551;-69
2022/03/11 06:52:22;;;;;;;;;9.50;9.50;;;;;;;;5012354;28;45324;-69
2022/03/11 06:54:47;;;;;;;;;11.00;10.00;;;;;;;;5012197;28;45340;-69
2022/03/11 06:57:12;;;;;;;;;9.75;7.25;;;;;;;;5008447;28;45504;-70
2022/03/11 06:59:37;;;;;;;;;8.00;8.00;;;;;;;;5008523;28;45470;-68
2022/03/11 07:02:03;;;;;;;;;9.75;9.75;;;;;;;;5008999;28;45394;-71
2022/03/11 07:04:28;;;;;;;;;11.00;10.50;;;;;;;;5009301;28;45462;-71
2022/03/11 07:06:54;;;;;;;;;8.75;8.75;;;;;;;;5014015;28;46160;-69
2022/03/11 07:09:19;;;;;;;;;10.00;10.00;;;;;;;;5014393;28;45458;-69
2022/03/11 07:11:46;;;;;;;;;10.50;10.50;;;;;;;;5016216;28;45684;-68
2022/03/11 07:14:11;;;;;;;;;12.00;11.00;;;;;;;;5014034;28;47753;-67
2022/03/11 07:16:37;;;;;;;;;13.50;11.00;;;;;;;;5015097;28;45636;-68
2022/03/11 07:19:02;;;;;;;;;12.00;12.00;;;;;;;;5015620;28;45529;-67
2022/03/11 07:21:27;;;;;;;;;12.25;9.25;;;;;;;;5013151;28;45299;-68
2022/03/11 07:23:54;;;;;;;;;8.50;6.75;;;;;;;;5015360;28;46291;-68
2022/03/11 07:26:19;;;;;;;;;11.00;9.75;;;;;;;;5013305;28;45591;-69
2022/03/11 07:28:44;;;;;;;;;9.75;9.75;;;;;;;;5013972;28;45631;-69
2022/03/11 07:31:10;;;;;;;;;5.00;4.00;;;;;;;;5015786;28;45322;-69
2022/03/11 07:33:35;;;;;;;;;7.50;7.50;;;;;;;;5014524;28;47893;-68
2022/03/11 07:36:00;;;;;;;;;7.50;4.75;;;;;;;;5015378;28;46366;-68
2022/03/11 07:38:30;;;;;;;;;10.50;9.00;;;;;;;;5016814;28;45445;-68
2022/03/11 07:40:56;;;;;;;;;7.25;6.25;;;;;;;;5015382;28;45742;-68
2022/03/11 07:43:21;;;;;;;;;10.00;9.25;;;;;;;;5014973;28;46042;-65
2022/03/11 07:45:46;;;;;;;;;7.50;7.25;;;;;;;;5015112;28;45294;-68
2022/03/11 07:48:12;;;;;;;;;4.00;4.00;;;;;;;;5013956;28;45569;-67
2022/03/11 07:50:37;;;;;;;;;6.25;6.25;;;;;;;;5014534;28;45461;-68
2022/03/11 07:53:02;;;;;;;;;7.25;7.25;;;;;;;;5014813;28;45437;-68
2022/03/11 07:55:28;;;;;;;;;8.00;8.00;;;;;;;;5013504;28;45311;-68
2022/03/11 07:57:53;;;;;;;;;10.00;8.25;;;;;;;;5014913;28;45325;-68
2022/03/11 08:00:19;;;;;;;;;7.50;7.50;;;;;;;;5015297;28;45438;-68
2022/03/11 08:02:44;;;;;;;;;10.50;7.50;;;;;;;;5016586;28;46122;-68
2022/03/11 08:05:14;;;;;;;;;8.75;7.25;;;;;;;;5012998;28;45379;-68
2022/03/11 08:07:40;;;;;;;;;8.00;7.00;;;;;;;;5011925;28;45393;-68
2022/03/11 08:10:06;;;;;;;;;7.00;7.00;;;;;;;;5013269;28;45455;-69
2022/03/11 08:12:31;;;;;;;;;6.25;5.75;;;;;;;;5014133;28;45473;-68
2022/03/11 08:14:57;;;;;;;;;8.50;8.50;;;;;;;;5015759;28;45526;-68
2022/03/11 08:17:23;;;;;;;;;5.75;5.75;;;;;;;;5015753;28;45655;-68
2022/03/11 08:19:49;;;;;;;;;8.50;8.50;;;;;;;;5013052;28;45548;-67
2022/03/11 08:22:14;;;;;;;;;5.50;5.50;;;;;;;;5014292;28;46516;-68
2022/03/11 08:24:40;;;;;;;;;7.50;6.50;;;;;;;;5013319;28;46028;-68
2022/03/11 08:27:05;;;;;;;;;5.00;5.00;;;;;;;;5014785;28;45459;-68
2022/03/11 08:29:34;;;;;;;;;8.25;8.25;;;;;;;;5015310;28;45504;-69
2022/03/11 08:31:59;;;;;;;;;7.00;5.50;;;;;;;;5014236;28;46034;-69
2022/03/11 08:34:25;;;;;;;;;8.75;8.00;;;;;;;;5014245;28;45670;-68
2022/03/11 08:36:50;;;;;;;;;8.50;7.50;;;;;;;;5014678;28;45474;-67
2022/03/11 08:39:15;;;;;;;;;5.00;5.00;;;;;;;;5014583;28;45500;-67
2022/03/11 08:41:40;;;;;;;;;6.75;4.75;;;;;;;;5016074;28;45593;-67
2022/03/11 08:44:06;;;;;;;;;7.00;7.00;;;;;;;;5014241;28;45472;-67
2022/03/11 08:46:31;;;;;;;;;8.50;8.00;;;;;;;;5011557;28;45817;-67
2022/03/11 08:48:57;;;;;;;;;5.25;5.25;;;;;;;;5012932;28;45470;-68
2022/03/11 08:51:22;;;;;;;;;5.50;4.50;;;;;;;;5012770;28;48584;-68
2022/03/11 08:53:48;;;;;;;;;4.75;4.75;;;;;;;;5016178;28;45413;-69
2022/03/11 08:56:15;;;;;;;;;6.50;6.50;;;;;;;;5014318;28;45520;-69
2022/03/11 08:58:40;;;;;;;;;7.75;7.75;;;;;;;;5012565;28;45482;-68
2022/03/11 09:01:05;;;;;;;;;6.75;6.00;;;;;;;;5013724;28;46638;-68
2022/03/11 09:03:31;;;;;;;;;6.75;5.00;;;;;;;;5012530;28;46875;-68
2022/03/11 09:05:56;;;;;;;;;8.00;5.00;;;;;;;;5015415;28;45451;-69
2022/03/11 09:08:21;;;;;;;;;3.75;3.75;;;;;;;;5013164;28;45593;-69
2022/03/11 09:10:47;;;;;;;;;8.00;7.00;;;;;;;;5013677;28;45695;-69
2022/03/11 09:13:12;;;;;;;;;5.75;5.75;;;;;;;;5013547;28;45750;-69
2022/03/11 09:15:37;;;;;;;;;5.50;4.00;;;;;;;;5012794;28;45492;-69
2022/03/11 09:18:02;;;;;;;;;5.00;5.00;;;;;;;;5014437;28;45331;-69
2022/03/11 09:20:29;;;;;;;;;3.25;3.25;;;;;;;;5013821;28;48943;-69
2022/03/11 09:22:54;;;;;;;;;4.00;4.00;;;;;;;;5012338;28;45665;-69
2022/03/11 09:25:19;;;;;;;;;5.50;4.00;;;;;;;;5012224;28;45821;-69
2022/03/11 09:27:45;;;;;;;;;5.00;4.00;;;;;;;;5013487;28;45489;-67
2022/03/11 09:30:11;;;;;;;;;4.75;3.00;;;;;;;;5012213;28;47344;-68
2022/03/11 09:32:37;;;;;;;;;5.25;5.00;;;;;;;;5015423;28;45470;-68
2022/03/11 09:35:03;;;;;;;;;2.50;2.50;;;;;;;;5012074;28;45313;-67
2022/03/11 09:37:28;;;;;;;;;3.50;2.75;;;;;;;;5012047;28;45443;-68
2022/03/11 09:39:54;;;;;;;;;1.75;1.75;;;;;;;;5011984;28;48229;-67
2022/03/11 09:42:20;;;;;;;;;5.50;4.00;;;;;;;;5012024;28;45542;-68
2022/03/11 09:44:49;;;;;;;;;4.25;4.25;;;;;;;;5015694;28;45386;-69
2022/03/11 09:47:15;;;;;;;;;2.00;2.00;;;;;;;;5014268;28;45397;-68
2022/03/11 09:49:40;;;;;;;;;3.00;3.00;;;;;;;;5013584;28;45700;-69
2022/03/11 09:52:06;;;;;;;;;3.00;3.00;;;;;;;;5013480;28;45537;-69
2022/03/11 09:54:31;;;;;;;;;3.00;3.00;;;;;;;;5013589;28;45434;-69
2022/03/11 09:56:56;;;;;;;;;2.00;2.00;;;;;;;;5014825;28;45417;-68
2022/03/11 09:59:22;;;;;;;;;4.00;4.00;;;;;;;;5013666;28;46686;-68
2022/03/11 10:01:47;;;;;;;;;4.00;4.00;;;;;;;;5013139;28;45459;-70
2022/03/11 10:04:15;;;;;;;;;3.50;3.50;;;;;;;;5011929;28;45317;-70
2022/03/11 10:06:44;;;;;;;;;3.25;3.25;;;;;;;;5012031;28;45536;-68
2022/03/11 10:09:19;;;;;;;;;4.25;3.75;;;;;;;;5011336;28;47888;-68
2022/03/11 10:11:49;;;;;;;;;5.00;4.00;;;;;;;;5014676;28;45530;-69
2022/03/11 10:14:15;;;;;;;;;3.75;3.25;;;;;;;;5011766;28;45370;-68
2022/03/11 10:16:40;;;;;;;;;4.50;4.00;;;;;;;;5011425;28;45304;-67
2022/03/11 10:19:08;;;;;;;;;4.75;4.75;;;;;;;;5012729;28;45787;-68
2022/03/11 10:21:33;;;;;;;;;4.00;4.00;;;;;;;;5011425;28;45473;-69
2022/03/11 10:23:59;;;;;;;;;3.00;3.00;;;;;;;;5012742;28;45401;-68
2022/03/11 10:26:39;;;;;;;;;3.00;3.00;;;;;;;;5012432;28;45489;-68
2022/03/11 10:29:06;;;;;;;;;4.00;4.00;;;;;;;;5011147;28;47470;-69
2022/03/11 10:31:35;;;;;;;;;2.25;2.25;;;;;;;;5011135;28;45410;-68
2022/03/11 10:34:11;;;;;;;;;5.00;4.00;;;;;;;;5010713;28;45342;-69
2022/03/11 10:36:36;;;;;;;;;3.50;3.50;;;;;;;;5011315;28;45662;-68
2022/03/11 10:39:20;;;;;;;;;2.75;2.50;;;;;;;;5011757;28;47733;-69
2022/03/11 10:41:49;;;;;;;;;6.50;6.25;;;;;;;;5012933;28;46009;-68
2022/03/11 10:44:16;;;;;;;;;12.25;12.25;;;;;;;;5011027;28;45469;-69
2022/03/11 10:46:42;;;;;;;;;24.00;20.75;;;;;;;;5011348;28;45434;-69
2022/03/11 10:49:07;;;;;;;;;38.75;32.75;;;;;;;;5012000;28;45850;-68
2022/03/11 10:51:34;;;;;;;;;5.75;5.00;;;;;;;;5012541;28;45641;-69
2022/03/11 10:54:00;;;;;;;;;4.50;4.50;;;;;;;;5013602;28;45379;-69
2022/03/11 10:56:29;;;;;;;;;4.25;4.25;;;;;;;;5012276;28;45393;-69
2022/03/11 10:58:54;;;;;;;;;3.75;3.75;;;;;;;;5012134;28;45737;-69
2022/03/11 11:01:36;;;;;;;;;6.75;4.00;;;;;;;;5010774;28;46008;-69
2022/03/11 11:04:02;;;;;;;;;4.25;4.25;;;;;;;;5011060;28;45789;-69
2022/03/11 11:06:28;;;;;;;;;4.00;4.00;;;;;;;;5012239;28;45346;-68
2022/03/11 11:08:54;;;;;;;;;5.00;5.00;;;;;;;;5012375;28;48154;-69
2022/03/11 11:11:19;;;;;;;;;5.50;5.50;;;;;;;;5009931;28;46310;-69
2022/03/11 11:13:44;;;;;;;;;4.75;4.75;;;;;;;;5013352;28;45412;-68
2022/03/11 11:16:10;;;;;;;;;6.00;6.00;;;;;;;;5011411;28;45467;-69
2022/03/11 11:18:35;;;;;;;;;4.50;4.00;;;;;;;;5011018;28;47314;-70
2022/03/11 11:21:04;;;;;;;;;5.00;4.75;;;;;;;;5011775;28;46146;-67
2022/03/11 11:23:31;;;;;;;;;5.75;4.50;;;;;;;;5013958;28;45463;-68
2022/03/11 11:25:57;;;;;;;;;4.00;4.00;;;;;;;;5011909;28;45497;-67
2022/03/11 11:28:23;;;;;;;;;5.25;5.25;;;;;;;;5013719;28;45548;-69
2022/03/11 11:30:52;;;;;;;;;5.50;5.50;;;;;;;;5010955;28;46325;-68
2022/03/11 11:33:18;;;;;;;;;6.25;6.25;;;;;;;;5014392;28;45418;-70
2022/03/11 11:35:43;;;;;;;;;6.25;6.25;;;;;;;;5012453;28;45409;-69
2022/03/11 11:38:42;;;;;;;;;7.50;7.50;;;;;;;;5010359;28;47830;-70
2022/03/11 11:41:16;;;;;;;;;7.50;6.00;;;;;;;;5012161;28;45502;-68
2022/03/11 11:43:50;;;;;;;;;6.00;6.00;;;;;;;;5030444;28;45551;-69
2022/03/11 11:46:19;;;;;;;;;11.00;7.75;;;;;;;;5031777;28;45504;-69
2022/03/11 11:48:45;;;;;;;;;5.00;5.00;;;;;;;;5033967;28;45866;-68
2022/03/11 11:51:21;;;;;;;;;8.00;8.00;;;;;;;;5017347;28;45534;-69
2022/03/11 11:53:51;;;;;;;;;6.00;6.00;;;;;;;;5016756;28;45490;-69
2022/03/11 11:56:28;;;;;;;;;5.50;5.50;;;;;;;;5032569;28;45645;-69
2022/03/11 11:58:56;;;;;;;;;5.25;4.50;;;;;;;;5016765;28;47601;-68
2022/03/11 12:01:39;;;;;;;;;7.75;6.50;;;;;;;;5014303;28;46248;-69
2022/03/11 12:04:23;;;;;;;;;6.00;6.00;;;;;;;;5016862;28;45466;-68
2022/03/11 12:06:52;;;;;;;;;6.50;5.25;;;;;;;;5033814;28;45504;-68
2022/03/11 12:09:35;;;;;;;;;6.50;4.00;;;;;;;;5016575;28;48905;-68
2022/03/11 12:12:01;;;;;;;;;5.75;5.75;;;;;;;;5033750;28;45661;-68
2022/03/11 12:14:29;;;;;;;;;5.50;5.50;;;;;;;;5033766;28;45481;-69
2022/03/11 12:17:07;;;;;;;;;5.75;5.75;;;;;;;;5011338;28;45575;-68
2022/03/11 12:19:40;;;;;;;;;7.75;6.75;;;;;;;;5013155;28;48562;-69
2022/03/11 12:22:24;;;;;;;;;9.00;7.25;;;;;;;;5014516;28;45430;-69
2022/03/11 12:24:57;;;;;;;;;6.75;6.75;;;;;;;;5013143;28;45408;-69
2022/03/11 12:27:41;;;;;;;;;6.00;6.00;;;;;;;;5014274;28;45427;-69
2022/03/11 12:30:07;;;;;;;;;7.00;6.50;;;;;;;;5014338;28;46467;-69
2022/03/11 12:32:33;;;;;;;;;8.50;7.50;;;;;;;;5014925;28;45453;-69
2022/03/11 12:34:58;;;;;;;;;6.75;6.50;;;;;;;;5014382;28;45433;-70
2022/03/11 12:37:26;;;;;;;;;8.00;8.00;;;;;;;;5014477;28;45419;-69
2022/03/11 12:39:51;;;;;;;;;6.50;5.00;;;;;;;;5011695;28;48632;-70
2022/03/11 12:42:17;;;;;;;;;7.00;6.00;;;;;;;;5013954;28;45318;-70
2022/03/11 12:44:45;;;;;;;;;7.25;7.25;;;;;;;;5016450;28;45409;-68
2022/03/11 12:47:15;;;;;;;;;6.25;5.75;;;;;;;;5012673;28;45643;-69
2022/03/11 12:49:40;;;;;;;;;8.50;8.00;;;;;;;;5012429;28;48742;-70
2022/03/11 12:52:19;;;;;;;;;6.00;6.00;;;;;;;;5012675;28;45509;-70
2022/03/11 12:54:44;;;;;;;;;9.25;8.50;;;;;;;;5012978;28;45387;-71
2022/03/11 12:57:11;;;;;;;;;6.25;6.25;;;;;;;;5012455;28;45363;-69
2022/03/11 12:59:37;;;;;;;;;5.75;5.25;;;;;;;;5015652;28;46433;-69
2022/03/11 13:02:03;;;;;;;;;6.50;6.50;;;;;;;;5013623;28;45371;-69
2022/03/11 13:04:28;;;;;;;;;9.25;8.00;;;;;;;;5012800;28;45347;-71
2022/03/11 13:07:00;;;;;;;;;8.00;8.00;;;;;;;;5014367;28;45449;-69
2022/03/11 13:09:25;;;;;;;;;8.25;7.00;;;;;;;;4998941;28;46072;-69
2022/03/11 13:11:50;;;;;;;;;7.00;7.00;;;;;;;;5015884;28;45628;-69
2022/03/11 13:14:18;;;;;;;;;9.00;8.25;;;;;;;;5013630;28;45502;-69
2022/03/11 13:16:49;;;;;;;;;8.75;7.50;;;;;;;;5012507;28;45884;-68
2022/03/11 13:19:14;;;;;;;;;10.75;8.25;;;;;;;;5012126;28;47041;-69
2022/03/11 13:21:40;;;;;;;;;10.25;8.50;;;;;;;;5013469;28;46056;-68
2022/03/11 13:24:07;;;;;;;;;6.75;6.50;;;;;;;;5012807;28;45532;-68
2022/03/11 13:26:32;;;;;;;;;9.00;8.25;;;;;;;;5012026;28;45641;-69
2022/03/11 13:28:58;;;;;;;;;0.50;0.50;;;;;;;;5011728;28;47732;-69
2022/03/11 13:31:23;;;;;;;;;7.25;7.25;;;;;;;;5012296;28;46538;-70
2022/03/11 13:33:50;;;;;;;;;9.00;9.00;;;;;;;;5012220;28;45448;-68
2022/03/11 13:36:16;;;;;;;;;6.25;6.25;;;;;;;;5013628;28;45538;-69
2022/03/11 13:38:46;;;;;;;;;5.00;5.00;;;;;;;;5014070;28;47503;-68
2022/03/11 13:41:25;;;;;;;;;7.00;7.00;;;;;;;;5012060;28;46165;-70
2022/03/11 13:44:03;;;;;;;;;7.00;5.00;;;;;;;;5011801;28;45500;-69
2022/03/11 13:46:29;;;;;;;;;7.50;5.75;;;;;;;;5012086;28;45751;-68
2022/03/11 13:49:05;;;;;;;;;8.00;8.00;;;;;;;;5011842;28;46194;-69
2022/03/11 13:51:42;;;;;;;;;7.00;7.00;;;;;;;;5012052;28;46350;-69
2022/03/11 13:54:08;;;;;;;;;9.25;7.25;;;;;;;;5009713;28;45422;-70
2022/03/11 13:56:37;;;;;;;;;7.00;7.00;;;;;;;;5005649;28;45409;-69
2022/03/11 13:59:06;;;;;;;;;8.50;7.75;;;;;;;;4999862;28;47854;-69
2022/03/11 14:01:38;;;;;;;;;9.75;9.50;;;;;;;;4998242;28;45666;-69
2022/03/11 14:04:17;;;;;;;;;7.25;7.25;;;;;;;;4994872;28;45470;-68
2022/03/11 14:06:43;;;;;;;;;8.25;7.25;;;;;;;;5001030;28;45433;-70
2022/03/11 14:09:08;;;;;;;;;7.00;7.00;;;;;;;;4999584;28;48046;-68
2022/03/11 14:11:34;;;;;;;;;7.00;7.00;;;;;;;;4994824;28;45680;-69
2022/03/11 14:13:59;;;;;;;;;6.00;6.00;;;;;;;;4996910;28;45497;-69
2022/03/11 14:16:29;;;;;;;;;9.00;8.25;;;;;;;;4999975;28;45580;-69
2022/03/11 14:18:54;;;;;;;;;5.00;5.00;;;;;;;;5002446;28;47959;-68
2022/03/11 14:21:19;;;;;;;;;8.00;7.25;;;;;;;;5005591;28;45780;-69
2022/03/11 14:23:44;;;;;;;;;8.50;8.00;;;;;;;;5000576;28;45407;-69
2022/03/11 14:26:10;;;;;;;;;9.00;9.00;;;;;;;;5000151;28;45505;-69
2022/03/11 14:28:36;;;;;;;;;11.00;11.00;;;;;;;;4998520;28;48210;-69